Time;durP1;ratioP1;P1;durP2;ratioP2;P2;SDS_P1;SDS_P2;PMS_P1;PMS_P2;Temp;Humidity;BMP_temperature;BMP_pressure;BME280_temperature;BME280_humidity;BME280_pressure;Samples;Min_cycle;Max_cycle;Signal;HPM_P1;HPM_P2
2022/12/05 00:02:18;;;;;;;;;;;4.70;90.50;;;;;;5058456;28;19994;-78
2022/12/05 00:04:43;;;;;;;;;;;4.60;90.50;;;;;;5042095;28;19920;-79
2022/12/05 00:07:08;;;;;;;;;;;4.70;90.50;;;;;;5042047;28;19928;-75
2022/12/05 00:09:34;;;;;;;;;;;4.60;90.40;;;;;;5042269;28;19956;-78
2022/12/05 00:11:59;;;;;;;;;;;4.60;90.40;;;;;;5045125;28;19992;-78
2022/12/05 00:14:25;;;;;;;;;;;4.70;90.50;;;;;;5041266;28;20367;-78
2022/12/05 00:16:50;;;;;;;;;;;4.70;90.50;;;;;;5042117;28;20334;-78
2022/12/05 00:19:16;;;;;;;;;;;4.60;90.50;;;;;;5063992;28;19999;-77
2022/12/05 00:21:41;;;;;;;;;;;4.70;90.50;;;;;;5046044;28;19917;-78
2022/12/05 00:24:07;;;;;;;;;;;4.70;90.50;;;;;;5013079;28;20327;-78
2022/12/05 00:26:33;;;;;;;;;;;4.70;90.50;;;;;;5035078;28;19921;-78
2022/12/05 00:28:59;;;;;;;;;;;4.70;90.50;;;;;;5049547;28;19921;-78
2022/12/05 00:31:24;;;;;;;;;;;4.70;90.50;;;;;;5037377;28;20771;-78
2022/12/05 00:33:50;;;;;;;;;;;4.70;90.50;;;;;;5052334;28;19925;-78
2022/12/05 00:36:25;;;;;;;;;;;4.70;90.50;;;;;;5042098;28;19959;-77
2022/12/05 00:38:50;;;;;;;;;;;4.70;90.50;;;;;;5029235;28;19972;-78
2022/12/05 00:41:17;;;;;;;;;;;4.70;90.50;;;;;;5029329;28;20398;-76
2022/12/05 00:43:43;;;;;;;;;;;4.70;90.50;;;;;;5047551;28;19956;-78
2022/12/05 00:46:10;;;;;;;;;;;4.70;90.50;;;;;;5042136;28;19999;-76
2022/12/05 00:48:36;;;;;;;;;;;4.70;90.50;;;;;;5053704;28;20847;-78
2022/12/05 00:51:01;;;;;;;;;;;4.70;90.50;;;;;;5042784;28;19967;-78
2022/12/05 00:53:27;;;;;;;;;;;4.70;90.50;;;;;;5041071;28;19924;-78
2022/12/05 00:55:52;;;;;;;;;;;4.70;90.50;;;;;;5042854;28;19920;-79
2022/12/05 00:58:18;;;;;;;;;;;4.70;90.50;;;;;;5053531;28;20492;-78
2022/12/05 01:00:43;;;;;;;;;;;4.70;90.50;;;;;;5042396;28;19917;-78
2022/12/05 01:03:09;;;;;;;;;;;4.70;90.50;;;;;;5041352;28;19921;-78
2022/12/05 01:05:34;;;;;;;;;;;4.70;90.50;;;;;;5043057;28;20004;-78
2022/12/05 01:08:00;;;;;;;;;;;4.70;90.50;;;;;;5041952;28;20096;-77
2022/12/05 01:10:25;;;;;;;;;;;4.70;90.50;;;;;;5041284;28;19923;-78
2022/12/05 01:12:51;;;;;;;;;;;4.70;90.50;;;;;;5077257;28;19924;-78
2022/12/05 01:15:16;;;;;;;;;;;4.70;90.50;;;;;;5046629;28;19951;-78
2022/12/05 01:17:42;;;;;;;;;;;4.70;90.50;;;;;;5064144;28;19927;-78
2022/12/05 01:20:07;;;;;;;;;;;4.70;90.50;;;;;;5060958;28;19916;-78
2022/12/05 01:22:33;;;;;;;;;;;4.70;90.50;;;;;;5053146;28;19932;-78
2022/12/05 01:24:58;;;;;;;;;;;4.70;90.50;;;;;;5044180;28;19917;-78
2022/12/05 01:27:24;;;;;;;;;;;4.70;90.50;;;;;;5042990;28;20429;-76
2022/12/05 01:29:49;;;;;;;;;;;4.70;90.50;;;;;;5052679;28;19950;-78
2022/12/05 01:32:15;;;;;;;;;;;4.60;90.50;;;;;;5040718;28;19917;-77
2022/12/05 01:34:40;;;;;;;;;;;4.70;90.50;;;;;;5062155;28;19924;-79
2022/12/05 01:37:06;;;;;;;;;;;4.70;90.50;;;;;;5044093;28;20313;-78
2022/12/05 01:39:31;;;;;;;;;;;4.70;90.50;;;;;;5059315;28;20016;-78
2022/12/05 01:41:57;;;;;;;;;;;4.70;90.50;;;;;;5047938;28;20007;-79
2022/12/05 01:44:22;;;;;;;;;;;4.70;90.50;;;;;;5060296;28;19924;-78
2022/12/05 01:46:49;;;;;;;;;;;4.70;90.50;;;;;;5062551;28;20441;-78
2022/12/05 01:49:34;;;;;;;;;;;4.70;90.90;;;;;;5045746;28;20569;-77
2022/12/05 01:52:00;;;;;;;;;;;4.70;90.50;;;;;;5063860;28;19920;-78
2022/12/05 01:54:26;;;;;;;;;;;4.60;90.50;;;;;;5053332;28;19923;-78
2022/12/05 01:57:01;;;;;;;;;;;4.70;90.50;;;;;;5049987;28;19917;-78
2022/12/05 01:59:27;;;;;;;;;;;4.70;90.50;;;;;;5059475;28;19913;-78
2022/12/05 02:01:53;;;;;;;;;;;4.70;90.50;;;;;;5024388;28;19999;-78
2022/12/05 02:04:18;;;;;;;;;;;4.60;90.50;;;;;;5024913;28;20370;-77
2022/12/05 02:06:44;;;;;;;;;;;4.60;90.50;;;;;;5050737;28;20011;-78
2022/12/05 02:09:09;;;;;;;;;;;4.70;90.50;;;;;;5054478;28;19959;-77
2022/12/05 02:11:35;;;;;;;;;;;4.70;90.50;;;;;;5045709;28;20062;-76
2022/12/05 02:14:00;;;;;;;;;;;4.70;90.50;;;;;;5051821;28;19928;-78
2022/12/05 02:16:44;;;;;;;;;;;4.70;90.50;;;;;;5067560;28;19917;-78
2022/12/05 02:19:28;;;;;;;;;;;4.70;90.50;;;;;;5075155;28;19921;-76
2022/12/05 02:22:03;;;;;;;;;;;4.70;90.50;;;;;;5082649;28;19906;-78
2022/12/05 02:24:47;;;;;;;;;;;4.60;90.50;;;;;;5078642;28;20293;-78
2022/12/05 02:27:19;;;;;;;;;;;4.70;90.50;;;;;;5042636;28;19944;-78
2022/12/05 02:29:57;;;;;;;;;;;4.70;90.50;;;;;;5046159;28;19975;-78
2022/12/05 02:32:41;;;;;;;;;;;4.70;90.50;;;;;;5073129;28;19916;-78
2022/12/05 02:35:28;;;;;;;;;;;4.70;90.50;;;;;;5061090;28;19917;-78
2022/12/05 02:38:14;;;;;;;;;;;4.70;90.50;;;;;;5045430;28;19921;-78
2022/12/05 02:40:59;;;;;;;;;;;4.70;90.50;;;;;;5037801;28;19925;-79
2022/12/05 02:43:36;;;;;;;;;;;4.70;90.50;;;;;;5058256;28;19925;-78
2022/12/05 02:46:03;;;;;;;;;;;4.70;90.50;;;;;;5047214;28;19928;-77
2022/12/05 02:48:28;;;;;;;;;;;4.70;90.50;;;;;;5043139;28;19991;-78
2022/12/05 02:50:54;;;;;;;;;;;4.70;90.50;;;;;;5057116;28;19920;-78
2022/12/05 02:53:20;;;;;;;;;;;4.70;90.50;;;;;;5044591;28;19924;-77
2022/12/05 02:55:45;;;;;;;;;;;4.70;90.50;;;;;;5050735;28;19920;-77
2022/12/05 02:58:18;;;;;;;;;;;4.70;90.50;;;;;;5072170;28;19916;-77
2022/12/05 03:00:44;;;;;;;;;;;4.70;90.50;;;;;;5058837;28;19916;-79
2022/12/05 03:03:13;;;;;;;;;;;4.70;90.50;;;;;;5031766;28;19917;-77
2022/12/05 03:05:40;;;;;;;;;;;4.80;90.60;;;;;;5056923;28;19921;-78
2022/12/05 03:08:06;;;;;;;;;;;4.80;90.60;;;;;;5045529;28;19925;-76
2022/12/05 03:10:32;;;;;;;;;;;4.70;90.50;;;;;;5050528;28;19924;-77
2022/12/05 03:12:59;;;;;;;;;;;4.70;90.50;;;;;;5046591;28;19920;-78
2022/12/05 03:15:26;;;;;;;;;;;4.80;90.60;;;;;;5054608;28;19942;-77
2022/12/05 03:18:08;;;;;;;;;;;4.80;90.60;;;;;;5066367;28;19924;-78
2022/12/05 03:20:35;;;;;;;;;;;4.80;90.60;;;;;;5054041;28;20345;-78
2022/12/05 03:23:11;;;;;;;;;;;4.80;90.60;;;;;;5030645;28;19963;-77
2022/12/05 03:25:49;;;;;;;;;;;4.80;90.50;;;;;;5045642;28;19947;-78
2022/12/05 03:28:18;;;;;;;;;;;4.80;90.90;;;;;;5064252;28;20444;-78
2022/12/05 03:30:43;;;;;;;;;;;4.80;90.60;;;;;;5051619;28;19959;-78
2022/12/05 03:33:12;;;;;;;;;;;4.80;90.60;;;;;;5042383;28;19952;-76
2022/12/05 03:35:47;;;;;;;;;;;4.70;90.50;;;;;;5051608;28;19948;-78
2022/12/05 03:38:13;;;;;;;;;;;4.80;90.60;;;;;;5067837;28;20031;-78
2022/12/05 03:40:48;;;;;;;;;;;4.80;90.60;;;;;;5045465;28;19921;-77
2022/12/05 03:43:26;;;;;;;;;;;4.80;90.60;;;;;;5067872;28;19924;-78
2022/12/05 03:45:55;;;;;;;;;;;4.70;90.50;;;;;;5048211;28;19946;-78
2022/12/05 03:48:24;;;;;;;;;;;4.70;90.50;;;;;;5052992;28;19925;-78
2022/12/05 03:50:49;;;;;;;;;;;4.80;90.60;;;;;;5051021;28;19917;-78
2022/12/05 03:53:16;;;;;;;;;;;4.70;90.50;;;;;;5040384;28;20569;-78
2022/12/05 03:55:42;;;;;;;;;;;4.70;90.50;;;;;;5033469;28;20351;-78
2022/12/05 03:58:09;;;;;;;;;;;4.80;90.60;;;;;;5049613;28;20015;-78
2022/12/05 04:00:35;;;;;;;;;;;4.70;90.50;;;;;;5033072;28;19924;-78
2022/12/05 04:03:04;;;;;;;;;;;4.70;90.50;;;;;;5049754;28;19920;-78
2022/12/05 04:05:39;;;;;;;;;;;4.80;90.60;;;;;;5052372;28;19936;-78
2022/12/05 04:08:25;;;;;;;;;;;4.70;90.50;;;;;;5061802;28;19916;-77
2022/12/05 04:10:50;;;;;;;;;;;4.70;90.50;;;;;;5065468;28;19959;-78
2022/12/05 04:13:21;;;;;;;;;;;4.80;90.60;;;;;;5064280;28;20326;-76
2022/12/05 04:18:36;;;;;;;;;;;4.80;90.60;;;;;;5049393;28;20325;-78
2022/12/05 04:25:31;;;;;;;;;;;4.80;90.60;;;;;;5035676;28;20457;-77
2022/12/05 04:26:31;;;;;;;;;;;4.80;90.60;;;;;;5057851;28;19928;-78
2022/12/05 04:28:59;;;;;;;;;;;4.80;90.60;;;;;;5055843;28;19918;-78
2022/12/05 04:31:24;;;;;;;;;;;4.80;90.60;;;;;;5047875;28;20358;-78
2022/12/05 04:33:53;;;;;;;;;;;4.80;90.60;;;;;;5044666;28;20000;-78
2022/12/05 04:36:20;;;;;;;;;;;4.80;90.60;;;;;;5054822;28;19955;-78
2022/12/05 04:38:49;;;;;;;;;;;4.80;90.60;;;;;;5043528;28;19926;-78
2022/12/05 04:41:16;;;;;;;;;;;4.80;90.60;;;;;;5058037;28;19940;-78
2022/12/05 04:43:42;;;;;;;;;;;4.80;90.60;;;;;;5027393;28;19924;-78
2022/12/05 04:46:08;;;;;;;;;;;4.80;90.60;;;;;;5027353;28;19925;-78
2022/12/05 04:48:34;;;;;;;;;;;4.80;90.70;;;;;;5021766;28;20445;-77
2022/12/05 04:50:59;;;;;;;;;;;4.80;90.60;;;;;;5026657;28;19917;-78
2022/12/05 04:53:26;;;;;;;;;;;4.80;90.50;;;;;;5036484;28;20463;-78
2022/12/05 04:55:52;;;;;;;;;;;4.80;90.60;;;;;;5025111;28;20286;-78
2022/12/05 04:58:18;;;;;;;;;;;4.80;90.60;;;;;;5062726;28;20375;-78
2022/12/05 05:01:04;;;;;;;;;;;4.80;90.60;;;;;;5050638;28;20014;-78
2022/12/05 05:03:35;;;;;;;;;;;4.80;90.60;;;;;;5047151;28;19928;-78
2022/12/05 05:06:01;;;;;;;;;;;4.80;90.60;;;;;;5061802;28;19916;-78
2022/12/05 05:08:27;;;;;;;;;;;4.80;90.50;;;;;;5055179;28;19924;-78
2022/12/05 05:11:12;;;;;;;;;;;4.80;90.50;;;;;;5034050;28;19929;-78
2022/12/05 05:13:37;;;;;;;;;;;4.80;90.50;;;;;;5052241;28;19928;-77
2022/12/05 05:16:03;;;;;;;;;;;4.80;90.50;;;;;;5055402;28;19928;-77
2022/12/05 05:18:28;;;;;;;;;;;4.80;90.50;;;;;;5067510;28;19924;-77
2022/12/05 05:20:54;;;;;;;;;;;4.80;90.50;;;;;;5049948;28;19970;-76
2022/12/05 05:23:19;;;;;;;;;;;4.80;90.60;;;;;;5043070;28;19924;-78
2022/12/05 05:25:45;;;;;;;;;;;4.80;90.60;;;;;;5042851;28;19916;-78
2022/12/05 05:28:10;;;;;;;;;;;4.80;90.50;;;;;;5046600;28;19966;-77
2022/12/05 05:30:35;;;;;;;;;;;4.80;90.50;;;;;;5059598;28;19924;-77
2022/12/05 05:33:01;;;;;;;;;;;4.80;90.60;;;;;;5066747;28;20383;-77
2022/12/05 05:35:26;;;;;;;;;;;4.80;90.60;;;;;;5061345;28;19921;-77
2022/12/05 05:37:52;;;;;;;;;;;4.80;90.60;;;;;;5065032;28;20405;-78
2022/12/05 05:40:17;;;;;;;;;;;4.80;90.60;;;;;;5058972;28;19931;-77
2022/12/05 05:42:43;;;;;;;;;;;4.80;90.60;;;;;;5062558;28;19916;-79
2022/12/05 05:45:09;;;;;;;;;;;4.80;90.60;;;;;;5062658;28;19928;-77
2022/12/05 05:47:35;;;;;;;;;;;4.80;90.60;;;;;;5042219;28;19925;-77
2022/12/05 05:50:00;;;;;;;;;;;4.80;90.60;;;;;;5059363;28;19952;-77
2022/12/05 05:52:25;;;;;;;;;;;4.80;90.60;;;;;;5041622;28;19916;-78
2022/12/05 05:54:51;;;;;;;;;;;4.80;90.60;;;;;;5037007;28;19916;-78
2022/12/05 05:57:16;;;;;;;;;;;4.80;90.60;;;;;;5035531;28;20389;-77
2022/12/05 05:59:42;;;;;;;;;;;4.80;90.60;;;;;;5060604;28;19924;-77
2022/12/05 06:02:07;;;;;;;;;;;4.80;90.60;;;;;;5063692;28;20423;-79
2022/12/05 06:04:33;;;;;;;;;;;4.80;90.60;;;;;;5060055;28;19924;-77
2022/12/05 06:06:59;;;;;;;;;;;4.80;90.60;;;;;;5042483;28;19921;-76
2022/12/05 06:09:24;;;;;;;;;;;4.80;90.60;;;;;;5056712;28;19979;-78
2022/12/05 06:11:50;;;;;;;;;;;4.80;90.60;;;;;;5039333;28;19925;-78
2022/12/05 06:14:15;;;;;;;;;;;4.80;90.60;;;;;;5037749;28;20379;-76
2022/12/05 06:16:40;;;;;;;;;;;4.80;90.60;;;;;;5023721;28;19924;-77
2022/12/05 06:19:06;;;;;;;;;;;4.80;90.60;;;;;;5037995;28;19925;-77
2022/12/05 06:21:32;;;;;;;;;;;4.80;90.60;;;;;;5024514;28;19913;-76
2022/12/05 06:23:57;;;;;;;;;;;4.80;90.60;;;;;;5038473;28;20007;-76
2022/12/05 06:26:23;;;;;;;;;;;4.80;90.60;;;;;;5039181;28;19931;-77
2022/12/05 06:28:48;;;;;;;;;;;4.80;90.60;;;;;;5041979;28;20454;-77
2022/12/05 06:31:16;;;;;;;;;;;4.80;90.60;;;;;;5041601;28;19923;-78
2022/12/05 06:33:41;;;;;;;;;;;4.80;90.60;;;;;;5038018;28;19917;-78
2022/12/05 06:36:08;;;;;;;;;;;4.80;90.60;;;;;;5022297;28;19923;-78
2022/12/05 06:38:33;;;;;;;;;;;4.80;90.60;;;;;;5044785;28;19925;-77
2022/12/05 06:40:59;;;;;;;;;;;4.80;90.60;;;;;;5052142;28;20621;-77
2022/12/05 06:43:24;;;;;;;;;;;4.80;90.60;;;;;;5065346;28;19975;-77
2022/12/05 06:45:50;;;;;;;;;;;4.80;90.60;;;;;;5066889;28;19973;-77
2022/12/05 06:48:15;;;;;;;;;;;4.80;90.60;;;;;;5044766;28;19921;-76
2022/12/05 06:50:46;;;;;;;;;;;4.80;90.60;;;;;;5064888;28;19924;-77
2022/12/05 06:53:12;;;;;;;;;;;4.80;90.60;;;;;;5059461;28;20027;-78
2022/12/05 06:55:37;;;;;;;;;;;4.80;90.60;;;;;;5044825;28;20385;-77
2022/12/05 06:58:03;;;;;;;;;;;4.80;90.60;;;;;;5054248;28;19916;-77
2022/12/05 07:03:13;;;;;;;;;;;4.80;90.60;;;;;;5042584;28;20006;-75
2022/12/05 07:05:38;;;;;;;;;;;4.80;90.60;;;;;;5062445;28;19920;-77
2022/12/05 07:08:03;;;;;;;;;;;4.80;90.60;;;;;;5055620;28;19924;-76
2022/12/05 07:10:29;;;;;;;;;;;4.80;90.60;;;;;;5060224;28;19927;-77
2022/12/05 07:12:55;;;;;;;;;;;4.80;90.60;;;;;;5066370;28;19946;-77
2022/12/05 07:15:21;;;;;;;;;;;4.80;90.60;;;;;;5030344;28;19916;-77
2022/12/05 07:17:46;;;;;;;;;;;4.80;90.60;;;;;;5024331;28;19917;-78
2022/12/05 07:20:16;;;;;;;;;;;4.80;90.60;;;;;;5038646;28;20706;-77
2022/12/05 07:22:42;;;;;;;;;;;4.80;90.60;;;;;;5062837;28;19920;-77
2022/12/05 07:25:09;;;;;;;;;;;4.80;90.60;;;;;;5039046;28;20285;-75
2022/12/05 07:27:34;;;;;;;;;;;4.80;90.60;;;;;;5065079;28;19996;-77
2022/12/05 07:30:00;;;;;;;;;;;4.80;90.60;;;;;;5040641;28;19916;-78
2022/12/05 07:32:25;;;;;;;;;;;4.80;90.60;;;;;;5051205;28;19920;-78
2022/12/05 07:34:51;;;;;;;;;;;4.80;90.60;;;;;;5061214;28;20338;-77
2022/12/05 07:37:16;;;;;;;;;;;4.80;90.60;;;;;;5063754;28;19920;-75
2022/12/05 07:39:42;;;;;;;;;;;4.80;90.60;;;;;;5062007;28;19995;-77
2022/12/05 07:42:07;;;;;;;;;;;4.80;90.60;;;;;;5068005;28;20334;-78
2022/12/05 07:44:33;;;;;;;;;;;4.90;90.60;;;;;;5062597;28;19942;-76
2022/12/05 07:46:59;;;;;;;;;;;4.80;90.60;;;;;;5046969;28;20339;-77
2022/12/05 07:49:24;;;;;;;;;;;4.80;90.60;;;;;;5060141;28;19923;-77
2022/12/05 07:51:50;;;;;;;;;;;4.90;90.60;;;;;;5064478;28;19920;-77
2022/12/05 07:54:15;;;;;;;;;;;4.90;90.60;;;;;;5066931;28;19929;-78
2022/12/05 07:56:41;;;;;;;;;;;4.90;90.60;;;;;;5065073;28;19966;-75
2022/12/05 07:59:06;;;;;;;;;;;4.90;90.60;;;;;;5064187;28;19955;-77
2022/12/05 08:01:32;;;;;;;;;;;4.90;90.60;;;;;;5056103;28;19917;-77
2022/12/05 08:03:57;;;;;;;;;;;4.90;90.60;;;;;;5056426;28;19921;-77
2022/12/05 08:06:24;;;;;;;;;;;4.90;90.60;;;;;;5062120;28;19921;-76
2022/12/05 08:08:50;;;;;;;;;;;4.90;90.60;;;;;;5050448;28;20047;-77
2022/12/05 08:11:16;;;;;;;;;;;4.90;90.60;;;;;;5044139;28;20417;-78
2022/12/05 08:13:41;;;;;;;;;;;4.90;90.60;;;;;;5064240;28;20448;-75
2022/12/05 08:16:08;;;;;;;;;;;4.90;90.60;;;;;;5062507;28;19917;-78
2022/12/05 08:18:34;;;;;;;;;;;4.90;90.60;;;;;;5045447;28;19924;-76
2022/12/05 08:21:03;;;;;;;;;;;4.90;90.60;;;;;;5063822;28;20319;-76
2022/12/05 08:23:29;;;;;;;;;;;4.90;90.60;;;;;;5044418;28;19988;-78
2022/12/05 08:25:54;;;;;;;;;;;4.90;90.60;;;;;;5039451;28;19930;-77
2022/12/05 08:28:20;;;;;;;;;;;4.90;90.60;;;;;;5041183;28;19924;-78
2022/12/05 08:30:45;;;;;;;;;;;5.00;90.60;;;;;;5044547;28;19917;-78
2022/12/05 08:33:11;;;;;;;;;;;5.00;90.70;;;;;;5048548;28;20449;-78
2022/12/05 08:35:36;;;;;;;;;;;5.00;90.60;;;;;;5064020;28;19924;-78
2022/12/05 08:38:02;;;;;;;;;;;5.00;90.60;;;;;;5061859;28;20136;-77
2022/12/05 08:40:27;;;;;;;;;;;5.00;90.60;;;;;;5059983;28;19928;-78
2022/12/05 08:42:53;;;;;;;;;;;5.00;90.60;;;;;;5060605;28;19928;-77
2022/12/05 08:45:18;;;;;;;;;;;5.00;90.90;;;;;;5061219;28;19928;-78
2022/12/05 08:47:44;;;;;;;;;;;5.00;90.60;;;;;;5062007;28;20298;-76
2022/12/05 08:50:09;;;;;;;;;;;5.00;90.60;;;;;;5063744;28;20006;-77
2022/12/05 08:52:35;;;;;;;;;;;5.00;90.60;;;;;;5062676;28;19979;-78
2022/12/05 08:55:00;;;;;;;;;;;5.00;90.60;;;;;;5062527;28;19924;-77
2022/12/05 08:57:26;;;;;;;;;;;5.00;90.60;;;;;;5063391;28;19974;-78
2022/12/05 08:59:51;;;;;;;;;;;5.00;90.60;;;;;;5060541;28;20294;-78
2022/12/05 09:02:17;;;;;;;;;;;5.00;90.60;;;;;;5057222;28;20326;-77
2022/12/05 09:04:42;;;;;;;;;;;5.00;90.60;;;;;;5062552;28;19920;-78
2022/12/05 09:07:08;;;;;;;;;;;5.00;90.60;;;;;;5059219;28;19924;-77
2022/12/05 09:09:33;;;;;;;;;;;5.00;90.60;;;;;;5059782;28;19920;-78
2022/12/05 09:11:59;;;;;;;;;;;5.00;90.60;;;;;;5058088;28;19916;-79
2022/12/05 09:14:25;;;;;;;;;;;5.00;90.60;;;;;;5057473;28;19924;-78
2022/12/05 09:16:50;;;;;;;;;;;5.00;90.60;;;;;;5062286;28;20102;-78
2022/12/05 09:19:17;;;;;;;;;;;5.00;90.60;;;;;;5061614;28;19916;-76
2022/12/05 09:21:42;;;;;;;;;;;5.00;90.60;;;;;;5065200;28;19928;-77
2022/12/05 09:24:09;;;;;;;;;;;5.10;90.60;;;;;;5062924;28;19982;-78
2022/12/05 09:26:34;;;;;;;;;;;5.10;90.60;;;;;;5059545;28;19927;-77
2022/12/05 09:29:00;;;;;;;;;;;5.10;90.60;;;;;;5061394;28;20343;-76
2022/12/05 09:31:26;;;;;;;;;;;5.10;90.60;;;;;;5062974;28;19932;-77
2022/12/05 09:33:51;;;;;;;;;;;5.10;90.60;;;;;;5061891;28;20075;-78
2022/12/05 09:36:17;;;;;;;;;;;5.10;90.60;;;;;;5063704;28;19920;-76
2022/12/05 09:38:42;;;;;;;;;;;5.20;90.60;;;;;;5044163;28;20002;-78
2022/12/05 09:41:14;;;;;;;;;;;5.20;90.60;;;;;;5043605;28;19921;-79
2022/12/05 09:43:48;;;;;;;;;;;5.20;90.60;;;;;;5061366;28;19936;-79
2022/12/05 09:46:23;;;;;;;;;;;5.20;90.60;;;;;;5054485;28;19917;-78
2022/12/05 09:48:48;;;;;;;;;;;5.20;90.60;;;;;;5061002;28;20378;-76
2022/12/05 09:51:14;;;;;;;;;;;5.30;90.60;;;;;;5061751;28;19931;-78
2022/12/05 09:53:40;;;;;;;;;;;5.30;90.60;;;;;;5061820;28;20296;-79
2022/12/05 09:56:11;;;;;;;;;;;5.30;90.60;;;;;;5058162;28;19921;-77
2022/12/05 09:58:37;;;;;;;;;;;5.30;90.60;;;;;;5043422;28;20019;-76
2022/12/05 10:01:22;;;;;;;;;;;5.30;90.60;;;;;;5058337;28;19960;-79
2022/12/05 10:04:08;;;;;;;;;;;5.30;90.60;;;;;;4989402;28;19931;-75
2022/12/05 10:06:46;;;;;;;;;;;5.30;90.60;;;;;;5021112;28;19925;-77
2022/12/05 10:09:20;;;;;;;;;;;5.30;90.50;;;;;;5045159;28;19960;-78
2022/12/05 10:11:52;;;;;;;;;;;5.40;90.60;;;;;;5056531;28;20016;-78
2022/12/05 10:14:44;;;;;;;;;;;5.40;90.60;;;;;;5043363;28;19974;-76
2022/12/05 10:17:19;;;;;;;;;;;5.40;90.60;;;;;;5042238;28;19925;-76
2022/12/05 10:19:45;;;;;;;;;;;5.40;90.60;;;;;;5064085;28;20023;-77
2022/12/05 10:22:15;;;;;;;;;;;5.40;90.60;;;;;;5066816;28;19944;-77
2022/12/05 10:24:51;;;;;;;;;;;5.40;90.60;;;;;;5064120;28;19933;-78
2022/12/05 10:27:20;;;;;;;;;;;5.40;90.60;;;;;;5031730;28;19920;-76
2022/12/05 10:29:49;;;;;;;;;;;5.40;90.60;;;;;;5055809;28;20027;-76
2022/12/05 10:32:18;;;;;;;;;;;5.40;90.60;;;;;;5047557;28;19979;-78
2022/12/05 10:34:44;;;;;;;;;;;5.40;90.50;;;;;;5072711;28;19920;-77
2022/12/05 10:37:17;;;;;;;;;;;5.40;90.50;;;;;;5069796;28;19959;-77
2022/12/05 10:39:42;;;;;;;;;;;5.50;90.60;;;;;;5054126;28;19917;-76
2022/12/05 10:42:15;;;;;;;;;;;5.50;90.60;;;;;;5048554;28;19921;-77
2022/12/05 10:44:40;;;;;;;;;;;5.50;90.50;;;;;;5062396;28;19939;-78
2022/12/05 10:47:06;;;;;;;;;;;5.50;90.90;;;;;;5049960;28;19966;-76
2022/12/05 10:49:32;;;;;;;;;;;5.50;90.50;;;;;;5049768;28;19921;-77
2022/12/05 10:51:58;;;;;;;;;;;5.60;90.60;;;;;;5050837;28;19917;-77
2022/12/05 10:54:24;;;;;;;;;;;5.60;90.50;;;;;;5047077;28;19936;-77
2022/12/05 10:56:50;;;;;;;;;;;5.60;90.50;;;;;;5051811;28;19916;-77
2022/12/05 10:59:17;;;;;;;;;;;5.60;90.50;;;;;;5070647;28;19923;-76
2022/12/05 11:02:00;;;;;;;;;;;5.70;90.50;;;;;;5071121;28;19927;-77
2022/12/05 11:04:27;;;;;;;;;;;5.80;90.50;;;;;;5030751;28;19968;-77
2022/12/05 11:07:03;;;;;;;;;;;5.80;90.50;;;;;;5036690;28;19921;-77
2022/12/05 11:09:29;;;;;;;;;;;5.80;90.50;;;;;;5069652;28;19920;-77
2022/12/05 11:12:03;;;;;;;;;;;5.80;90.40;;;;;;5055129;28;19943;-77
2022/12/05 11:14:32;;;;;;;;;;;5.80;90.40;;;;;;5037152;28;19954;-76
2022/12/05 11:16:58;;;;;;;;;;;5.90;90.40;;;;;;5050376;28;19928;-76
2022/12/05 11:19:27;;;;;;;;;;;5.90;90.50;;;;;;5070392;28;19987;-77
2022/12/05 11:21:52;;;;;;;;;;;5.90;90.40;;;;;;5073131;28;20027;-77
2022/12/05 11:24:21;;;;;;;;;;;5.90;90.40;;;;;;5066015;28;20025;-76
2022/12/05 11:26:47;;;;;;;;;;;5.90;90.40;;;;;;5050739;28;20039;-76
2022/12/05 11:29:28;;;;;;;;;;;5.90;90.40;;;;;;5046803;28;19990;-75
2022/12/05 11:31:53;;;;;;;;;;;5.90;90.40;;;;;;5063523;28;19942;-75
2022/12/05 11:34:20;;;;;;;;;;;5.90;90.40;;;;;;5062482;28;19929;-77
2022/12/05 11:36:47;;;;;;;;;;;5.90;90.40;;;;;;5065200;28;20001;-76
2022/12/05 11:39:13;;;;;;;;;;;5.90;90.40;;;;;;5040615;28;20165;-77
2022/12/05 11:41:39;;;;;;;;;;;5.90;90.40;;;;;;5050640;28;20179;-76
2022/12/05 11:44:11;;;;;;;;;;;5.90;90.40;;;;;;5033559;28;19925;-77
2022/12/05 11:46:44;;;;;;;;;;;5.90;90.40;;;;;;5029950;28;19970;-77
2022/12/05 11:49:30;;;;;;;;;;;5.90;90.40;;;;;;5016483;28;20062;-77
2022/12/05 11:52:13;;;;;;;;;;;5.90;90.40;;;;;;5056564;28;19968;-76
2022/12/05 11:54:42;;;;;;;;;;;5.90;90.40;;;;;;5072012;28;19948;-76
2022/12/05 11:57:14;;;;;;;;;;;5.90;90.40;;;;;;5048320;28;19952;-77
2022/12/05 11:59:48;;;;;;;;;;;5.90;90.40;;;;;;5045721;28;19916;-77
2022/12/05 12:02:14;;;;;;;;;;;5.90;90.40;;;;;;5058321;28;19984;-76
2022/12/05 12:05:01;;;;;;;;;;;5.90;90.40;;;;;;5056515;28;19956;-75
2022/12/05 12:07:47;;;;;;;;;;;5.90;90.40;;;;;;5049225;28;19921;-77
2022/12/05 12:10:31;;;;;;;;;;;5.90;90.40;;;;;;5054028;28;20463;-75
2022/12/05 12:13:00;;;;;;;;;;;5.90;90.40;;;;;;5058623;28;19943;-76
2022/12/05 12:15:45;;;;;;;;;;;6.00;90.40;;;;;;5041293;28;19940;-76
2022/12/05 12:18:37;;;;;;;;;;;6.00;90.40;;;;;;5045913;28;19921;-76
2022/12/05 12:21:23;;;;;;;;;;;6.00;90.40;;;;;;5029729;28;19997;-76
2022/12/05 12:24:04;;;;;;;;;;;6.00;90.40;;;;;;5050747;28;20018;-76
2022/12/05 12:26:37;;;;;;;;;;;6.00;90.40;;;;;;5033884;28;19923;-78
2022/12/05 12:29:08;;;;;;;;;;;6.00;90.40;;;;;;5042830;28;19940;-76
2022/12/05 12:31:43;;;;;;;;;;;6.00;90.40;;;;;;5064531;28;19932;-76
2022/12/05 12:34:27;;;;;;;;;;;6.00;90.40;;;;;;5047196;28;19928;-75
2022/12/05 12:37:12;;;;;;;;;;;6.00;90.40;;;;;;5052513;28;19913;-77
2022/12/05 12:39:41;;;;;;;;;;;6.00;90.40;;;;;;5061830;28;19921;-77
2022/12/05 12:42:13;;;;;;;;;;;6.00;90.40;;;;;;5070110;28;19924;-76
2022/12/05 12:44:57;;;;;;;;;;;6.00;90.40;;;;;;5065533;28;19917;-77
2022/12/05 12:47:29;;;;;;;;;;;6.00;90.40;;;;;;5054488;28;19939;-76
2022/12/05 12:50:08;;;;;;;;;;;6.00;90.40;;;;;;5071288;28;19971;-77
2022/12/05 12:52:54;;;;;;;;;;;6.00;90.40;;;;;;5055691;28;19927;-75
2022/12/05 12:55:25;;;;;;;;;;;6.00;90.40;;;;;;5050453;28;19929;-76
2022/12/05 12:58:14;;;;;;;;;;;6.00;90.40;;;;;;5060673;28;19912;-77
2022/12/05 13:01:05;;;;;;;;;;;6.00;90.40;;;;;;5018225;28;19920;-77
2022/12/05 13:03:41;;;;;;;;;;;6.10;90.40;;;;;;5044622;28;19920;-76
2022/12/05 13:06:15;;;;;;;;;;;6.10;90.40;;;;;;5047885;28;20383;-72
2022/12/05 13:08:48;;;;;;;;;;;6.10;90.40;;;;;;5046894;28;19942;-77
2022/12/05 13:11:14;;;;;;;;;;;6.10;90.40;;;;;;5059418;28;19978;-79
2022/12/05 13:13:42;;;;;;;;;;;6.10;90.40;;;;;;5047967;28;19924;-75
2022/12/05 13:16:07;;;;;;;;;;;6.10;90.40;;;;;;5030220;28;19986;-78
2022/12/05 13:18:33;;;;;;;;;;;6.10;90.40;;;;;;5058210;28;19920;-76
2022/12/05 13:20:59;;;;;;;;;;;6.10;90.40;;;;;;5054753;28;19921;-77
2022/12/05 13:23:28;;;;;;;;;;;6.10;90.40;;;;;;5024094;28;19972;-77
2022/12/05 13:25:54;;;;;;;;;;;6.10;90.40;;;;;;5061920;28;19917;-77
2022/12/05 13:28:20;;;;;;;;;;;6.10;90.40;;;;;;5075444;28;20683;-77
2022/12/05 13:31:00;;;;;;;;;;;6.10;90.40;;;;;;5050328;28;19905;-77
2022/12/05 13:33:29;;;;;;;;;;;6.10;90.40;;;;;;5064624;28;19928;-76
2022/12/05 13:44:30;;;;;;;;;;;6.10;90.40;;;;;;5046732;28;19947;-77
2022/12/05 13:46:56;;;;;;;;;;;6.10;90.40;;;;;;5060099;28;19999;-76
2022/12/05 13:49:33;;;;;;;;;;;6.20;90.40;;;;;;5051793;28;19935;-77
2022/12/05 13:52:06;;;;;;;;;;;6.10;90.40;;;;;;5061649;28;19995;-76
2022/12/05 13:54:31;;;;;;;;;;;6.10;90.40;;;;;;5056214;28;19912;-77
2022/12/05 13:57:00;;;;;;;;;;;6.10;90.30;;;;;;5064477;28;19925;-77
2022/12/05 13:59:44;;;;;;;;;;;6.10;90.40;;;;;;5026820;28;20051;-79
2022/12/05 14:02:28;;;;;;;;;;;6.10;90.40;;;;;;5032816;28;19925;-75
2022/12/05 14:04:53;;;;;;;;;;;6.10;90.40;;;;;;5057829;28;19925;-77
2022/12/05 14:07:41;;;;;;;;;;;6.10;90.40;;;;;;5068201;28;20427;-76
2022/12/05 14:10:08;;;;;;;;;;;6.10;90.40;;;;;;5057851;28;19927;-77
2022/12/05 14:12:46;;;;;;;;;;;6.10;90.40;;;;;;5059448;28;20370;-78
2022/12/05 14:15:24;;;;;;;;;;;6.20;90.40;;;;;;5055555;28;19955;-76
2022/12/05 14:17:53;;;;;;;;;;;6.10;90.40;;;;;;5040958;28;19921;-77
2022/12/05 14:20:31;;;;;;;;;;;6.20;90.40;;;;;;5050178;28;19921;-76
2022/12/05 14:23:03;;;;;;;;;;;6.20;90.40;;;;;;5072647;28;19927;-77
2022/12/05 14:25:40;;;;;;;;;;;6.10;90.30;;;;;;5076214;28;19921;-77
2022/12/05 14:28:12;;;;;;;;;;;6.10;90.30;;;;;;5056548;28;19923;-76
2022/12/05 14:30:56;;;;;;;;;;;6.10;90.30;;;;;;5063147;28;19917;-76
2022/12/05 14:33:22;;;;;;;;;;;6.10;90.40;;;;;;5033469;28;19909;-78
2022/12/05 14:35:47;;;;;;;;;;;6.10;90.40;;;;;;5053184;28;19924;-77
2022/12/05 14:38:42;;;;;;;;;;;6.10;90.40;;;;;;5055858;28;20014;-76
2022/12/05 14:41:24;;;;;;;;;;;6.10;90.40;;;;;;5054248;28;19981;-77
2022/12/05 14:43:53;;;;;;;;;;;6.20;90.40;;;;;;5051539;28;19924;-77
2022/12/05 14:46:25;;;;;;;;;;;6.10;90.40;;;;;;5056662;28;19984;-77
2022/12/05 14:48:51;;;;;;;;;;;6.10;90.40;;;;;;5059185;28;19980;-75
2022/12/05 14:51:29;;;;;;;;;;;6.10;90.40;;;;;;5055292;28;19916;-76
2022/12/05 14:53:54;;;;;;;;;;;6.20;90.40;;;;;;5071117;28;19933;-77
2022/12/05 14:56:20;;;;;;;;;;;6.10;90.40;;;;;;5052152;28;19952;-76
2022/12/05 14:58:47;;;;;;;;;;;6.20;90.40;;;;;;5057606;28;19916;-76
2022/12/05 15:01:26;;;;;;;;;;;6.10;90.40;;;;;;5055186;28;19978;-78